Time;durP1;ratioP1;P1;durP2;ratioP2;P2;SDS_P1;SDS_P2;PMS_P1;PMS_P2;Temp;Humidity;BMP_temperature;BMP_pressure;BME280_temperature;BME280_humidity;BME280_pressure;Samples;Min_cycle;Max_cycle;Signal;HPM_P1;HPM_P2
2022/01/09 00:00:21;;;;;;;85.00;49.93;;;;;;;;;;5069668;28;20432;-81
2022/01/09 00:02:47;;;;;;;78.73;49.43;;;;;;;;;;5070038;28;20485;-81
2022/01/09 00:05:14;;;;;;;91.70;54.23;;;;;;;;;;5074258;28;20447;-81
2022/01/09 00:07:40;;;;;;;95.87;56.80;;;;;;;;;;5069495;28;20417;-81
2022/01/09 00:10:07;;;;;;;105.10;61.20;;;;;;;;;;5073894;28;20445;-81
2022/01/09 00:12:33;;;;;;;124.33;70.03;;;;;;;;;;5070229;28;21326;-81
2022/01/09 00:14:59;;;;;;;99.97;61.23;;;;;;;;;;5068539;28;20420;-81
2022/01/09 00:17:26;;;;;;;134.10;73.63;;;;;;;;;;5069796;28;21026;-81
2022/01/09 00:19:52;;;;;;;131.10;74.67;;;;;;;;;;5067245;28;20425;-81
2022/01/09 00:22:23;;;;;;;94.97;57.10;;;;;;;;;;5071691;28;20460;-81
2022/01/09 00:24:49;;;;;;;105.47;62.63;;;;;;;;;;5071303;28;20409;-81
2022/01/09 00:27:15;;;;;;;93.70;57.47;;;;;;;;;;5070873;28;20428;-81
2022/01/09 00:29:41;;;;;;;96.17;61.03;;;;;;;;;;5071157;28;20438;-81
2022/01/09 00:32:08;;;;;;;121.43;71.27;;;;;;;;;;5072261;28;20467;-81
2022/01/09 00:34:34;;;;;;;126.00;74.33;;;;;;;;;;5071253;28;20417;-81
2022/01/09 00:37:00;;;;;;;100.97;64.07;;;;;;;;;;5071562;28;20486;-81
2022/01/09 00:39:26;;;;;;;125.00;74.67;;;;;;;;;;5065460;28;20757;-81
2022/01/09 00:41:52;;;;;;;96.37;60.57;;;;;;;;;;5073280;28;20540;-81
2022/01/09 00:44:18;;;;;;;111.57;66.87;;;;;;;;;;5071320;28;20473;-81
2022/01/09 00:46:44;;;;;;;112.23;68.40;;;;;;;;;;5066202;28;21191;-81
2022/01/09 00:49:10;;;;;;;121.23;72.63;;;;;;;;;;5067337;28;21058;-81
2022/01/09 00:51:36;;;;;;;89.17;57.90;;;;;;;;;;5068752;28;20421;-81
2022/01/09 00:54:02;;;;;;;115.57;70.17;;;;;;;;;;5071510;28;20413;-81
2022/01/09 00:56:28;;;;;;;99.77;63.27;;;;;;;;;;5068270;28;21589;-81
2022/01/09 00:58:54;;;;;;;107.90;66.23;;;;;;;;;;5070211;28;20421;-81
2022/01/09 01:01:20;;;;;;;95.07;61.40;;;;;;;;;;5070081;28;20417;-81
2022/01/09 01:03:46;;;;;;;99.20;63.73;;;;;;;;;;5068902;28;20474;-81
2022/01/09 01:06:13;;;;;;;122.17;73.93;;;;;;;;;;5069535;28;20436;-81
2022/01/09 01:08:39;;;;;;;123.27;73.07;;;;;;;;;;5068756;28;20409;-81
2022/01/09 01:11:05;;;;;;;100.33;62.60;;;;;;;;;;5071168;28;20486;-81
2022/01/09 01:13:31;;;;;;;93.93;59.93;;;;;;;;;;5068130;28;20412;-81
2022/01/09 01:15:58;;;;;;;111.20;70.07;;;;;;;;;;5072446;28;21228;-81
2022/01/09 01:18:25;;;;;;;126.07;76.77;;;;;;;;;;5067210;28;20491;-81
2022/01/09 01:20:51;;;;;;;105.83;65.60;;;;;;;;;;5072835;28;20467;-81
2022/01/09 01:23:17;;;;;;;132.30;79.00;;;;;;;;;;5072687;28;20482;-81
2022/01/09 01:25:45;;;;;;;128.27;77.43;;;;;;;;;;5070569;28;20467;-81
2022/01/09 01:28:11;;;;;;;110.43;67.83;;;;;;;;;;5070366;28;20409;-81
2022/01/09 01:30:38;;;;;;;111.40;68.83;;;;;;;;;;5072596;28;20423;-81
2022/01/09 01:33:04;;;;;;;117.20;71.77;;;;;;;;;;5068192;28;20413;-81
2022/01/09 01:35:30;;;;;;;101.73;63.73;;;;;;;;;;5068408;28;20517;-81
2022/01/09 01:37:56;;;;;;;95.80;59.67;;;;;;;;;;5068449;28;21098;-81
2022/01/09 01:40:23;;;;;;;95.43;60.67;;;;;;;;;;5067918;28;20914;-81
2022/01/09 01:42:49;;;;;;;95.60;58.37;;;;;;;;;;5070251;28;21235;-81
2022/01/09 01:45:15;;;;;;;86.40;54.50;;;;;;;;;;5068737;28;20432;-81
2022/01/09 01:47:41;;;;;;;83.17;55.03;;;;;;;;;;5073004;28;20412;-81
2022/01/09 01:50:08;;;;;;;88.13;55.97;;;;;;;;;;5068040;28;21107;-81
2022/01/09 01:52:40;;;;;;;81.33;51.80;;;;;;;;;;5071484;28;20456;-81
2022/01/09 01:55:08;;;;;;;85.60;55.20;;;;;;;;;;5069645;28;20521;-81
2022/01/09 01:57:34;;;;;;;92.67;59.77;;;;;;;;;;5071793;28;20425;-81
2022/01/09 02:00:00;;;;;;;103.67;62.97;;;;;;;;;;5066008;28;20992;-81
2022/01/09 02:02:26;;;;;;;109.57;66.70;;;;;;;;;;5066334;28;20451;-81
2022/01/09 02:04:53;;;;;;;88.23;56.73;;;;;;;;;;5069239;28;20421;-81
2022/01/09 02:07:19;;;;;;;89.00;54.90;;;;;;;;;;5068132;28;20597;-81
2022/01/09 02:09:45;;;;;;;77.43;51.07;;;;;;;;;;5072984;28;21317;-81
2022/01/09 02:12:11;;;;;;;81.33;52.90;;;;;;;;;;5065961;28;20459;-81
2022/01/09 02:14:43;;;;;;;86.53;56.80;;;;;;;;;;5067790;28;20455;-81
2022/01/09 02:17:09;;;;;;;87.70;56.10;;;;;;;;;;5067441;28;20416;-81
2022/01/09 02:19:35;;;;;;;106.53;63.90;;;;;;;;;;5070328;28;20440;-81
2022/01/09 02:22:01;;;;;;;111.90;66.30;;;;;;;;;;5063219;28;20477;-81
2022/01/09 02:24:28;;;;;;;103.30;63.70;;;;;;;;;;5069710;28;20508;-81
2022/01/09 02:26:54;;;;;;;90.20;56.53;;;;;;;;;;5065752;28;20478;-81
2022/01/09 02:29:20;;;;;;;97.00;60.13;;;;;;;;;;5066935;28;20427;-81
2022/01/09 02:31:46;;;;;;;104.20;65.07;;;;;;;;;;5066267;28;20431;-81
2022/01/09 02:34:12;;;;;;;85.97;55.83;;;;;;;;;;5067155;28;20521;-81
2022/01/09 02:36:38;;;;;;;101.93;63.53;;;;;;;;;;5067935;28;21419;-81
2022/01/09 02:39:04;;;;;;;103.27;63.37;;;;;;;;;;5068610;28;20424;-81
2022/01/09 02:41:30;;;;;;;93.87;60.27;;;;;;;;;;5065385;28;20460;-81
2022/01/09 02:43:57;;;;;;;95.00;61.10;;;;;;;;;;5068551;28;20429;-81
2022/01/09 02:46:51;;;;;;;101.40;62.27;;;;;;;;;;5064138;28;20541;-81
2022/01/09 02:49:17;;;;;;;97.17;60.03;;;;;;;;;;5070083;28;20432;-81
2022/01/09 02:51:45;;;;;;;80.63;54.57;;;;;;;;;;5066374;28;20450;-81
2022/01/09 02:56:56;;;;;;;114.10;67.97;;;;;;;;;;5070781;28;21242;-81
2022/01/09 02:59:22;;;;;;;103.03;64.40;;;;;;;;;;5068151;28;21020;-81
2022/01/09 03:01:48;;;;;;;95.83;61.63;;;;;;;;;;5065656;28;20476;-81
2022/01/09 03:04:14;;;;;;;89.67;56.83;;;;;;;;;;5064041;28;20432;-81
2022/01/09 03:06:40;;;;;;;99.13;61.87;;;;;;;;;;5069739;28;20417;-81
2022/01/09 03:09:07;;;;;;;99.43;58.47;;;;;;;;;;5067428;28;20451;-81
2022/01/09 03:11:36;;;;;;;102.00;62.87;;;;;;;;;;5069847;28;20417;-81
2022/01/09 03:14:02;;;;;;;91.27;58.50;;;;;;;;;;5067936;28;20512;-81
2022/01/09 03:16:28;;;;;;;101.43;64.27;;;;;;;;;;5045591;28;20451;-81
2022/01/09 03:18:54;;;;;;;87.07;57.03;;;;;;;;;;5067430;28;20445;-81
2022/01/09 03:21:20;;;;;;;81.73;54.03;;;;;;;;;;5071228;28;20427;-81
2022/01/09 03:23:46;;;;;;;122.47;74.87;;;;;;;;;;5072550;28;20475;-81
2022/01/09 03:26:12;;;;;;;97.20;61.47;;;;;;;;;;5070084;28;20875;-81
2022/01/09 03:28:38;;;;;;;117.47;70.87;;;;;;;;;;5073596;28;20530;-81
2022/01/09 03:31:04;;;;;;;115.37;68.77;;;;;;;;;;5072696;28;20451;-81
2022/01/09 03:33:30;;;;;;;130.10;75.73;;;;;;;;;;5070608;28;20487;-81
2022/01/09 03:35:56;;;;;;;118.60;70.13;;;;;;;;;;5074835;28;20428;-81
2022/01/09 03:38:22;;;;;;;91.30;60.00;;;;;;;;;;5072030;28;20424;-81
2022/01/09 03:40:48;;;;;;;100.57;61.63;;;;;;;;;;5071943;28;20421;-81
2022/01/09 03:43:14;;;;;;;97.93;60.90;;;;;;;;;;5069072;28;20467;-81
2022/01/09 03:45:40;;;;;;;97.67;59.67;;;;;;;;;;5067036;28;21100;-81
2022/01/09 03:48:06;;;;;;;91.03;59.20;;;;;;;;;;5066805;28;20414;-81
2022/01/09 03:50:33;;;;;;;96.87;60.43;;;;;;;;;;5069488;28;21336;-81
2022/01/09 03:52:59;;;;;;;93.67;58.63;;;;;;;;;;5070042;28;21154;-81
2022/01/09 03:55:26;;;;;;;94.97;59.33;;;;;;;;;;5073705;28;20420;-81
2022/01/09 03:57:52;;;;;;;91.87;58.73;;;;;;;;;;5070722;28;20429;-81
2022/01/09 04:00:20;;;;;;;126.17;72.97;;;;;;;;;;5071056;28;20459;-81
2022/01/09 04:02:48;;;;;;;135.77;78.60;;;;;;;;;;5074077;28;20444;-81
2022/01/09 04:05:14;;;;;;;126.17;73.60;;;;;;;;;;5074748;28;20432;-81
2022/01/09 04:07:41;;;;;;;135.13;78.97;;;;;;;;;;5071582;28;21093;-80
2022/01/09 04:10:07;;;;;;;143.00;84.03;;;;;;;;;;5070550;28;20448;-81
2022/01/09 04:12:36;;;;;;;117.05;68.68;;;;;;;;;;5071447;28;20433;-80
2022/01/09 04:15:04;;;;;;;139.70;81.72;;;;;;;;;;5070888;28;20189;-80
2022/01/09 04:18:13;;;;;;;115.43;69.53;;;;;;;;;;5065692;28;20281;-81
2022/01/09 04:20:22;;;;;;;115.90;70.30;;;;;;;;;;5065308;28;21355;-81
2022/01/09 04:22:49;;;;;;;137.18;81.18;;;;;;;;;;5072445;28;20444;-81
2022/01/09 04:25:15;;;;;;;130.10;77.17;;;;;;;;;;5067926;28;20175;-81
2022/01/09 04:27:42;;;;;;;135.50;81.77;;;;;;;;;;5069078;28;20413;-81
2022/01/09 04:30:08;;;;;;;115.20;72.80;;;;;;;;;;5070889;28;20419;-81
2022/01/09 04:32:34;;;;;;;131.07;81.57;;;;;;;;;;5071344;28;20405;-81
2022/01/09 04:35:01;;;;;;;150.77;88.53;;;;;;;;;;5071462;28;21388;-81
2022/01/09 04:37:27;;;;;;;121.67;75.67;;;;;;;;;;5068244;28;21382;-81
2022/01/09 04:39:54;;;;;;;143.87;85.30;;;;;;;;;;5070510;28;20512;-81
2022/01/09 04:42:25;;;;;;;151.13;85.77;;;;;;;;;;5068342;28;20556;-81
2022/01/09 04:44:51;;;;;;;124.90;74.40;;;;;;;;;;5071281;28;21045;-81
2022/01/09 04:47:18;;;;;;;151.43;84.37;;;;;;;;;;5066472;28;20420;-81
2022/01/09 04:49:47;;;;;;;162.63;91.10;;;;;;;;;;5070398;28;20428;-81
2022/01/09 04:52:17;;;;;;;151.47;86.37;;;;;;;;;;5070420;28;20474;-80
2022/01/09 04:54:43;;;;;;;152.07;87.60;;;;;;;;;;5070342;28;20507;-81
2022/01/09 04:57:10;;;;;;;145.47;86.47;;;;;;;;;;5068122;28;20563;-81
2022/01/09 04:59:36;;;;;;;143.33;83.47;;;;;;;;;;5069244;28;21599;-81
2022/01/09 05:02:02;;;;;;;125.83;74.13;;;;;;;;;;5068208;28;20515;-81
2022/01/09 05:04:28;;;;;;;159.70;90.33;;;;;;;;;;5069663;28;20422;-81
2022/01/09 05:06:54;;;;;;;122.97;74.17;;;;;;;;;;5068985;28;20436;-81
2022/01/09 05:09:20;;;;;;;109.57;69.60;;;;;;;;;;5071782;28;20416;-81
2022/01/09 05:11:46;;;;;;;124.47;76.37;;;;;;;;;;5073010;28;20509;-81
2022/01/09 05:14:12;;;;;;;121.73;76.90;;;;;;;;;;5068793;28;20504;-81
2022/01/09 05:16:42;;;;;;;124.27;74.53;;;;;;;;;;5068166;28;20510;-81
2022/01/09 05:19:17;;;;;;;116.50;75.63;;;;;;;;;;5071941;28;22249;-81
2022/01/09 05:21:43;;;;;;;115.57;74.07;;;;;;;;;;5067870;28;20423;-81
2022/01/09 05:24:09;;;;;;;111.53;71.90;;;;;;;;;;5069895;28;20424;-81
2022/01/09 05:26:35;;;;;;;92.33;61.57;;;;;;;;;;5067456;28;20412;-81
2022/01/09 05:29:01;;;;;;;119.87;74.27;;;;;;;;;;5069376;28;20511;-81
2022/01/09 05:31:27;;;;;;;92.27;62.13;;;;;;;;;;5073125;28;20413;-81
2022/01/09 05:33:53;;;;;;;129.60;80.20;;;;;;;;;;5071701;28;20412;-81
2022/01/09 05:36:19;;;;;;;110.80;71.43;;;;;;;;;;5067380;28;20482;-81
2022/01/09 05:38:46;;;;;;;115.23;74.77;;;;;;;;;;5070279;28;20427;-81
2022/01/09 05:41:12;;;;;;;121.37;76.83;;;;;;;;;;5070468;28;20495;-81
2022/01/09 05:43:39;;;;;;;117.83;73.83;;;;;;;;;;5070175;28;20544;-81
2022/01/09 05:46:06;;;;;;;130.80;81.07;;;;;;;;;;5065512;28;20418;-81
2022/01/09 05:48:32;;;;;;;128.20;78.65;;;;;;;;;;5067671;28;20464;-81
2022/01/09 05:50:58;;;;;;;129.00;79.63;;;;;;;;;;5069844;28;20182;-81
2022/01/09 05:53:24;;;;;;;120.03;75.17;;;;;;;;;;5070097;28;20865;-81
2022/01/09 05:55:50;;;;;;;104.17;69.37;;;;;;;;;;5071945;28;20434;-81
2022/01/09 05:58:17;;;;;;;104.30;66.70;;;;;;;;;;5068108;28;20425;-81
2022/01/09 06:00:43;;;;;;;123.13;76.33;;;;;;;;;;5066574;28;20422;-81
2022/01/09 06:03:09;;;;;;;108.87;69.00;;;;;;;;;;5069762;28;20444;-82
2022/01/09 06:05:35;;;;;;;106.37;69.27;;;;;;;;;;5067607;28;20422;-82
2022/01/09 06:08:01;;;;;;;119.20;73.77;;;;;;;;;;5067492;28;20486;-81
2022/01/09 06:10:27;;;;;;;121.27;75.97;;;;;;;;;;5071191;28;20496;-81
2022/01/09 06:12:53;;;;;;;116.03;73.07;;;;;;;;;;5069568;28;20415;-81
2022/01/09 06:15:19;;;;;;;104.53;68.00;;;;;;;;;;5070352;28;21322;-81
2022/01/09 06:17:46;;;;;;;123.60;77.93;;;;;;;;;;5069331;28;20424;-81
2022/01/09 06:20:13;;;;;;;122.93;76.70;;;;;;;;;;5065162;28;20603;-81
2022/01/09 06:22:39;;;;;;;103.97;68.83;;;;;;;;;;5071396;28;20486;-81
2022/01/09 06:25:06;;;;;;;117.43;75.50;;;;;;;;;;5074080;28;20423;-81
2022/01/09 06:27:32;;;;;;;125.27;77.70;;;;;;;;;;5068095;28;21257;-81
2022/01/09 06:29:58;;;;;;;119.93;75.10;;;;;;;;;;5068167;28;21185;-81
2022/01/09 06:32:24;;;;;;;128.93;77.43;;;;;;;;;;5068504;28;20445;-81
2022/01/09 06:34:50;;;;;;;99.20;62.97;;;;;;;;;;5067740;28;20900;-81
2022/01/09 06:37:16;;;;;;;113.53;71.03;;;;;;;;;;5065269;28;20426;-81
2022/01/09 06:39:43;;;;;;;131.77;80.03;;;;;;;;;;5065008;28;20417;-81
2022/01/09 06:42:09;;;;;;;133.77;82.33;;;;;;;;;;5069776;28;20521;-81
2022/01/09 06:44:36;;;;;;;130.60;77.90;;;;;;;;;;5066621;28;20452;-81
2022/01/09 06:47:02;;;;;;;107.63;66.83;;;;;;;;;;5069215;28;21271;-81
2022/01/09 06:49:28;;;;;;;104.60;66.40;;;;;;;;;;5066564;28;22132;-81
2022/01/09 06:51:54;;;;;;;117.43;73.47;;;;;;;;;;5070600;28;20565;-81
2022/01/09 06:54:20;;;;;;;117.47;72.70;;;;;;;;;;5072589;28;20513;-81
2022/01/09 06:56:46;;;;;;;108.83;67.43;;;;;;;;;;5070649;28;21287;-81
2022/01/09 06:59:12;;;;;;;133.00;79.93;;;;;;;;;;5075384;28;20423;-81
2022/01/09 07:01:38;;;;;;;117.47;71.43;;;;;;;;;;5071499;28;21130;-81
2022/01/09 07:04:04;;;;;;;128.73;79.30;;;;;;;;;;5076589;28;21004;-81
2022/01/09 07:06:30;;;;;;;110.17;68.63;;;;;;;;;;5073975;28;21114;-81
2022/01/09 07:08:56;;;;;;;130.03;77.50;;;;;;;;;;5074335;28;20520;-81
2022/01/09 07:11:23;;;;;;;101.27;65.00;;;;;;;;;;5072474;28;21163;-81
2022/01/09 07:13:49;;;;;;;119.00;76.30;;;;;;;;;;5071899;28;20419;-81
2022/01/09 07:16:15;;;;;;;136.10;81.97;;;;;;;;;;5070070;28;20424;-81
2022/01/09 07:18:41;;;;;;;106.87;68.03;;;;;;;;;;5070753;28;20433;-81
2022/01/09 07:21:07;;;;;;;114.00;73.20;;;;;;;;;;5070354;28;20425;-81
2022/01/09 07:23:33;;;;;;;102.13;65.87;;;;;;;;;;5070733;28;20480;-81
2022/01/09 07:25:59;;;;;;;102.27;66.63;;;;;;;;;;5069034;28;20416;-81
2022/01/09 07:28:25;;;;;;;104.07;65.50;;;;;;;;;;5069290;28;20413;-82
2022/01/09 07:30:51;;;;;;;86.80;58.07;;;;;;;;;;5068999;28;21412;-81
2022/01/09 07:33:21;;;;;;;105.97;67.30;;;;;;;;;;5068602;28;20516;-82
2022/01/09 07:35:49;;;;;;;84.90;57.23;;;;;;;;;;5070990;28;20490;-81
2022/01/09 07:38:18;;;;;;;95.93;61.07;;;;;;;;;;5069387;28;20516;-82
2022/01/09 07:40:47;;;;;;;103.37;69.33;;;;;;;;;;5070397;28;20429;-82
2022/01/09 07:43:13;;;;;;;98.30;63.23;;;;;;;;;;5073044;28;20574;-81
2022/01/09 07:45:39;;;;;;;111.07;69.20;;;;;;;;;;5068898;28;20421;-81
2022/01/09 07:48:06;;;;;;;105.57;66.03;;;;;;;;;;5071479;28;20459;-81
2022/01/09 07:50:32;;;;;;;97.50;61.67;;;;;;;;;;5067854;28;20482;-81
2022/01/09 07:52:58;;;;;;;98.27;63.27;;;;;;;;;;5068526;28;20439;-80
2022/01/09 07:55:24;;;;;;;116.57;71.20;;;;;;;;;;5068424;28;20429;-81
2022/01/09 07:57:51;;;;;;;94.83;60.80;;;;;;;;;;5071467;28;21348;-81
2022/01/09 08:00:18;;;;;;;114.73;69.63;;;;;;;;;;5066390;28;21230;-81
2022/01/09 08:02:44;;;;;;;107.93;68.47;;;;;;;;;;5069190;28;20444;-80
2022/01/09 08:05:11;;;;;;;97.33;61.23;;;;;;;;;;5071541;28;20404;-81
2022/01/09 08:07:38;;;;;;;93.20;60.23;;;;;;;;;;5072934;28;20417;-81
2022/01/09 08:10:04;;;;;;;96.40;61.50;;;;;;;;;;5068235;28;20420;-81
2022/01/09 08:12:30;;;;;;;94.20;60.93;;;;;;;;;;5067713;28;20525;-80
2022/01/09 08:14:56;;;;;;;95.00;60.77;;;;;;;;;;5072018;28;20493;-81
2022/01/09 08:17:22;;;;;;;94.77;59.83;;;;;;;;;;5084439;27;20512;-81
2022/01/09 08:19:48;;;;;;;85.37;55.87;;;;;;;;;;5070118;28;20417;-80
2022/01/09 08:22:15;;;;;;;87.43;56.80;;;;;;;;;;5066478;28;20499;-80
2022/01/09 08:24:41;;;;;;;99.13;62.00;;;;;;;;;;5070540;28;20474;-80
2022/01/09 08:27:08;;;;;;;94.83;60.97;;;;;;;;;;5068274;28;20555;-81
2022/01/09 08:29:34;;;;;;;100.53;63.97;;;;;;;;;;5066669;28;20420;-80
2022/01/09 08:32:07;;;;;;;112.57;68.77;;;;;;;;;;5071899;28;20430;-80
2022/01/09 08:34:33;;;;;;;109.97;68.23;;;;;;;;;;5067789;28;20428;-80
2022/01/09 08:36:59;;;;;;;101.47;63.00;;;;;;;;;;5065911;28;21240;-81
2022/01/09 08:39:26;;;;;;;104.23;64.33;;;;;;;;;;5066699;28;20414;-81
2022/01/09 08:41:52;;;;;;;93.33;59.67;;;;;;;;;;5071703;28;20427;-82
2022/01/09 08:44:18;;;;;;;107.03;66.70;;;;;;;;;;5070348;28;20452;-81
2022/01/09 08:46:44;;;;;;;93.93;61.33;;;;;;;;;;5066979;28;20421;-82
2022/01/09 08:49:10;;;;;;;97.43;62.17;;;;;;;;;;5070603;28;20417;-82
2022/01/09 08:51:36;;;;;;;94.87;61.93;;;;;;;;;;5067906;28;20425;-82
2022/01/09 08:54:02;;;;;;;94.87;60.80;;;;;;;;;;5070995;28;20456;-82
2022/01/09 08:56:29;;;;;;;103.30;63.80;;;;;;;;;;5067385;28;20435;-81
2022/01/09 08:58:57;;;;;;;105.73;66.47;;;;;;;;;;5070051;28;20580;-82
2022/01/09 09:01:23;;;;;;;101.07;65.27;;;;;;;;;;5066760;28;20428;-82
2022/01/09 09:03:50;;;;;;;99.17;62.27;;;;;;;;;;5071209;28;20616;-82
2022/01/09 09:06:16;;;;;;;91.87;58.63;;;;;;;;;;5070064;28;20421;-82
2022/01/09 09:08:43;;;;;;;106.07;64.93;;;;;;;;;;5065989;28;21084;-82
2022/01/09 09:11:10;;;;;;;95.37;60.03;;;;;;;;;;5070944;28;20760;-82
2022/01/09 09:13:37;;;;;;;88.77;57.27;;;;;;;;;;5067085;28;20421;-82
2022/01/09 09:16:03;;;;;;;98.97;62.90;;;;;;;;;;5082908;28;20425;-81
2022/01/09 09:18:30;;;;;;;98.77;62.33;;;;;;;;;;5067310;28;21172;-81
2022/01/09 09:20:57;;;;;;;109.77;69.23;;;;;;;;;;5068747;28;21217;-83
2022/01/09 09:23:23;;;;;;;106.20;66.30;;;;;;;;;;5067935;28;21099;-82
2022/01/09 09:25:49;;;;;;;113.63;70.93;;;;;;;;;;5068838;28;20420;-82
2022/01/09 09:28:16;;;;;;;119.90;73.87;;;;;;;;;;5069926;28;20496;-82
2022/01/09 09:30:42;;;;;;;124.93;78.50;;;;;;;;;;5064211;28;20445;-83
2022/01/09 09:33:08;;;;;;;125.33;78.53;;;;;;;;;;5063028;28;20421;-82
2022/01/09 09:35:34;;;;;;;108.30;67.87;;;;;;;;;;5062323;28;21103;-82
2022/01/09 09:38:00;;;;;;;100.03;65.07;;;;;;;;;;5066782;28;20420;-82
2022/01/09 09:40:27;;;;;;;118.17;73.80;;;;;;;;;;5067683;28;20417;-82
2022/01/09 09:42:54;;;;;;;131.67;79.97;;;;;;;;;;5062478;28;20443;-82
2022/01/09 09:45:20;;;;;;;134.93;84.17;;;;;;;;;;5063937;28;20573;-82
2022/01/09 09:47:46;;;;;;;101.47;65.73;;;;;;;;;;5071830;28;20431;-83
2022/01/09 09:50:13;;;;;;;127.87;80.00;;;;;;;;;;5071853;28;20416;-82
2022/01/09 09:52:46;;;;;;;101.67;64.70;;;;;;;;;;5066492;28;20452;-82
2022/01/09 09:55:12;;;;;;;114.57;72.23;;;;;;;;;;5070264;28;21319;-83
2022/01/09 09:57:38;;;;;;;121.40;75.10;;;;;;;;;;5071012;28;20419;-83
2022/01/09 10:00:10;;;;;;;115.60;72.43;;;;;;;;;;5068347;28;20420;-82
2022/01/09 10:02:42;;;;;;;119.37;76.70;;;;;;;;;;5068826;28;20501;-85
2022/01/09 10:05:08;;;;;;;122.00;74.37;;;;;;;;;;5069273;28;20517;-83
2022/01/09 10:07:34;;;;;;;125.97;78.13;;;;;;;;;;5068994;28;20463;-82
2022/01/09 10:10:02;;;;;;;103.47;65.70;;;;;;;;;;5065506;28;21261;-82
2022/01/09 10:12:29;;;;;;;118.83;74.80;;;;;;;;;;5069622;28;21495;-83
2022/01/09 10:15:06;;;;;;;119.80;74.33;;;;;;;;;;5071421;28;20475;-82
2022/01/09 10:17:32;;;;;;;111.63;70.13;;;;;;;;;;5064630;28;20486;-82
2022/01/09 10:20:04;;;;;;;118.80;73.07;;;;;;;;;;5068455;28;20430;-82
2022/01/09 10:22:30;;;;;;;107.60;68.60;;;;;;;;;;5061852;28;20513;-82
2022/01/09 10:24:57;;;;;;;118.40;74.33;;;;;;;;;;5064099;28;20425;-82
2022/01/09 10:27:30;;;;;;;114.33;72.13;;;;;;;;;;5065196;28;21274;-82
2022/01/09 10:29:56;;;;;;;101.17;64.80;;;;;;;;;;5070124;28;20417;-84
2022/01/09 10:32:30;;;;;;;93.70;61.73;;;;;;;;;;5067488;28;20416;-84
2022/01/09 10:35:09;;;;;;;101.27;64.23;;;;;;;;;;5069794;28;20468;-82
2022/01/09 10:37:35;;;;;;;97.60;63.83;;;;;;;;;;5067382;28;20490;-83
2022/01/09 10:40:02;;;;;;;91.73;59.23;;;;;;;;;;5069469;28;20432;-83
2022/01/09 10:42:28;;;;;;;102.77;64.07;;;;;;;;;;5063865;28;20453;-83
2022/01/09 10:44:54;;;;;;;94.80;59.20;;;;;;;;;;5066127;28;20420;-83
2022/01/09 10:47:21;;;;;;;98.00;61.70;;;;;;;;;;5066565;28;20409;-83
2022/01/09 10:49:50;;;;;;;99.93;61.63;;;;;;;;;;5063560;28;20409;-83
2022/01/09 10:52:20;;;;;;;103.03;62.50;;;;;;;;;;5068760;28;20425;-83
2022/01/09 10:54:47;;;;;;;82.13;55.83;;;;;;;;;;5068381;28;20459;-83
2022/01/09 10:57:15;;;;;;;80.50;53.87;;;;;;;;;;5067159;28;20444;-85
2022/01/09 10:59:41;;;;;;;88.00;56.83;;;;;;;;;;5064664;28;20419;-81
2022/01/09 11:02:10;;;;;;;85.07;53.53;;;;;;;;;;5060963;28;21576;-83
2022/01/09 11:04:36;;;;;;;83.93;53.83;;;;;;;;;;5061447;28;21165;-83
2022/01/09 11:07:02;;;;;;;90.90;56.97;;;;;;;;;;5066827;28;20413;-83
2022/01/09 11:09:30;;;;;;;94.13;59.00;;;;;;;;;;5068111;28;20417;-82
2022/01/09 11:11:57;;;;;;;85.43;56.20;;;;;;;;;;5061734;28;20515;-82
2022/01/09 11:14:24;;;;;;;82.10;54.03;;;;;;;;;;5064361;28;20412;-82
2022/01/09 11:16:54;;;;;;;92.73;59.47;;;;;;;;;;5063113;28;20494;-82
2022/01/09 11:19:24;;;;;;;93.60;60.20;;;;;;;;;;5068563;28;20423;-83
2022/01/09 11:21:52;;;;;;;86.37;55.13;;;;;;;;;;5065059;28;20416;-83
2022/01/09 11:24:37;;;;;;;84.00;55.60;;;;;;;;;;5063508;28;20424;-83
2022/01/09 11:27:06;;;;;;;108.20;63.87;;;;;;;;;;5069596;28;21513;-83
2022/01/09 11:29:41;;;;;;;105.87;63.90;;;;;;;;;;5062899;28;20413;-82
2022/01/09 11:32:10;;;;;;;97.80;62.67;;;;;;;;;;5065024;28;20423;-83
2022/01/09 11:34:48;;;;;;;102.30;63.33;;;;;;;;;;5064587;28;20538;-82
2022/01/09 11:37:34;;;;;;;99.17;60.23;;;;;;;;;;5065067;28;20497;-83
2022/01/09 11:40:01;;;;;;;113.77;68.07;;;;;;;;;;5070535;28;20424;-83
2022/01/09 11:42:27;;;;;;;97.33;59.63;;;;;;;;;;5067634;28;20452;-83
2022/01/09 11:44:56;;;;;;;98.20;61.07;;;;;;;;;;5067002;28;20511;-83
2022/01/09 11:47:25;;;;;;;95.53;59.40;;;;;;;;;;5071444;28;20432;-83
2022/01/09 11:49:52;;;;;;;109.37;64.63;;;;;;;;;;5074718;28;20420;-82
2022/01/09 11:52:18;;;;;;;101.87;61.23;;;;;;;;;;5066877;28;20417;-83
2022/01/09 11:55:17;;;;;;;109.13;63.77;;;;;;;;;;5067995;28;20439;-82
2022/01/09 11:57:46;;;;;;;106.80;61.60;;;;;;;;;;5033490;28;20425;-82
2022/01/09 12:00:44;;;;;;;108.03;64.33;;;;;;;;;;5066244;28;20512;-82
2022/01/09 12:03:26;;;;;;;100.80;61.07;;;;;;;;;;5043619;28;20453;-83
2022/01/09 12:06:01;;;;;;;113.07;65.70;;;;;;;;;;5064554;28;20428;-82
2022/01/09 12:08:27;;;;;;;106.63;63.53;;;;;;;;;;5066893;28;20423;-83
2022/01/09 12:10:54;;;;;;;150.40;85.70;;;;;;;;;;5069011;28;21855;-83
2022/01/09 12:13:50;;;;;;;147.17;88.37;;;;;;;;;;5065684;28;20528;-83
2022/01/09 12:16:38;;;;;;;126.80;76.23;;;;;;;;;;5053685;28;20417;-83
2022/01/09 12:19:04;;;;;;;133.47;79.63;;;;;;;;;;5069795;28;20513;-82
2022/01/09 12:21:39;;;;;;;124.43;71.60;;;;;;;;;;5063238;28;20410;-83
2022/01/09 12:24:24;;;;;;;133.73;75.13;;;;;;;;;;5070509;28;20781;-82
2022/01/09 12:26:50;;;;;;;126.13;71.73;;;;;;;;;;5067122;28;20428;-83
2022/01/09 12:29:35;;;;;;;116.33;69.73;;;;;;;;;;5070539;28;20452;-83
2022/01/09 12:32:01;;;;;;;108.60;62.47;;;;;;;;;;5069751;28;20444;-83
2022/01/09 12:37:39;;;;;;;132.10;72.60;;;;;;;;;;5050536;28;20505;-83
2022/01/09 12:40:05;;;;;;;123.87;71.13;;;;;;;;;;5065541;28;20466;-81
2022/01/09 12:42:32;;;;;;;122.57;70.83;;;;;;;;;;5066609;28;20457;-82
2022/01/09 12:44:58;;;;;;;100.43;61.87;;;;;;;;;;5064233;28;20420;-82
2022/01/09 12:47:24;;;;;;;109.10;64.97;;;;;;;;;;5063953;28;20694;-82
2022/01/09 12:53:13;;;;;;;101.53;59.93;;;;;;;;;;5066706;28;20589;-81
2022/01/09 12:55:58;;;;;;;100.53;59.60;;;;;;;;;;5062346;28;20913;-80
2022/01/09 12:58:25;;;;;;;98.37;56.47;;;;;;;;;;5070418;28;20428;-81
2022/01/09 13:00:52;;;;;;;83.43;51.27;;;;;;;;;;5062191;28;20425;-81
2022/01/09 13:03:18;;;;;;;84.00;51.60;;;;;;;;;;5064694;28;20820;-81
2022/01/09 13:05:52;;;;;;;84.00;51.07;;;;;;;;;;5063748;28;21034;-81
2022/01/09 13:08:19;;;;;;;79.50;50.50;;;;;;;;;;5065762;28;20488;-81
2022/01/09 13:10:45;;;;;;;81.00;50.30;;;;;;;;;;5065201;28;20429;-81
2022/01/09 13:13:13;;;;;;;80.20;48.97;;;;;;;;;;5068708;28;21078;-81
2022/01/09 13:15:41;;;;;;;81.13;49.33;;;;;;;;;;5067547;28;21200;-81
2022/01/09 13:18:07;;;;;;;74.87;47.20;;;;;;;;;;5065322;28;20549;-81
2022/01/09 13:20:34;;;;;;;82.70;51.23;;;;;;;;;;5061359;28;20512;-80
2022/01/09 13:23:07;;;;;;;71.67;45.30;;;;;;;;;;5062903;28;20452;-81
2022/01/09 13:25:42;;;;;;;78.63;46.57;;;;;;;;;;5063793;28;21411;-81
2022/01/09 13:28:17;;;;;;;80.83;49.57;;;;;;;;;;5066337;28;20512;-81
2022/01/09 13:30:46;;;;;;;74.00;48.03;;;;;;;;;;5065907;28;20421;-81
2022/01/09 13:33:12;;;;;;;75.67;47.70;;;;;;;;;;5063481;28;21221;-81
2022/01/09 13:35:38;;;;;;;79.13;49.47;;;;;;;;;;5063207;28;20428;-80
2022/01/09 13:38:04;;;;;;;76.53;48.47;;;;;;;;;;5066380;28;20442;-81
2022/01/09 13:46:58;;;;;;;74.87;47.73;;;;;;;;;;5023551;28;20500;-81
2022/01/09 13:49:24;;;;;;;76.97;47.97;;;;;;;;;;5063925;28;20436;-80
2022/01/09 13:51:51;;;;;;;76.10;48.67;;;;;;;;;;5066380;28;21205;-79
2022/01/09 13:54:19;;;;;;;75.27;47.47;;;;;;;;;;5067871;28;20433;-80
2022/01/09 13:56:45;;;;;;;69.07;43.20;;;;;;;;;;5065872;28;20425;-81
2022/01/09 13:59:12;;;;;;;73.63;46.13;;;;;;;;;;5058088;28;20416;-80
2022/01/09 14:01:48;;;;;;;78.13;50.77;;;;;;;;;;5059299;28;20433;-80
2022/01/09 14:04:19;;;;;;;76.50;46.90;;;;;;;;;;5060850;28;20563;-80
2022/01/09 14:06:55;;;;;;;78.27;49.57;;;;;;;;;;5067177;28;20442;-80
2022/01/09 14:09:28;;;;;;;76.70;49.30;;;;;;;;;;5063052;28;21262;-81
2022/01/09 14:12:15;;;;;;;75.57;49.30;;;;;;;;;;5063606;28;20785;-81
2022/01/09 14:14:45;;;;;;;68.77;45.37;;;;;;;;;;5063879;28;20418;-81
2022/01/09 14:17:26;;;;;;;77.93;49.43;;;;;;;;;;5065631;28;20422;-81
2022/01/09 14:19:53;;;;;;;72.80;47.97;;;;;;;;;;5068319;28;20486;-81
2022/01/09 14:22:19;;;;;;;74.00;47.10;;;;;;;;;;5068054;28;20494;-80
2022/01/09 14:24:58;;;;;;;74.80;48.37;;;;;;;;;;5067299;28;21434;-80
2022/01/09 14:27:28;;;;;;;84.90;51.70;;;;;;;;;;5066625;28;20417;-80